createdAt,value
2022-10-04T00:00:46.656Z,61.45
2022-10-04T00:02:00.008Z,61.50
2022-10-04T00:03:25.191Z,61.41
2022-10-04T00:04:43.531Z,61.46
2022-10-04T00:05:53.155Z,61.43
2022-10-04T00:07:08.322Z,61.30
2022-10-04T00:08:42.580Z,61.61
2022-10-04T00:10:00.120Z,61.40
2022-10-04T00:11:06.217Z,61.36
2022-10-04T00:12:22.413Z,61.42
2022-10-04T00:13:26.711Z,61.48
2022-10-04T00:14:32.526Z,61.47
2022-10-04T00:15:39.237Z,61.52
2022-10-04T00:16:44.050Z,61.34
2022-10-04T00:18:01.089Z,61.58
2022-10-04T00:19:15.500Z,61.46
2022-10-04T00:20:50.621Z,61.61
2022-10-04T00:21:53.523Z,61.47
2022-10-04T00:23:41.702Z,61.31
2022-10-04T00:25:08.084Z,61.36
2022-10-04T00:26:38.856Z,61.36
2022-10-04T00:28:19.608Z,61.21
2022-10-04T00:29:37.100Z,61.40
2022-10-04T00:30:39.332Z,61.24
2022-10-04T00:32:12.971Z,61.51
2022-10-04T00:33:36.000Z,61.38
2022-10-04T00:34:48.779Z,61.41
2022-10-04T00:35:51.125Z,61.53
2022-10-04T00:36:57.299Z,61.64
2022-10-04T00:38:13.537Z,61.38
2022-10-04T00:39:18.399Z,61.50
2022-10-04T00:40:22.284Z,61.37
2022-10-04T00:41:25.345Z,61.51
2022-10-04T00:43:24.011Z,61.30
2022-10-04T00:44:38.473Z,61.62
2022-10-04T00:45:48.923Z,61.56
2022-10-04T00:46:52.947Z,61.44
2022-10-04T00:48:16.203Z,61.57
2022-10-04T00:49:23.815Z,61.52
2022-10-04T00:50:41.758Z,61.71
2022-10-04T00:51:54.285Z,61.57
2022-10-04T00:53:02.640Z,61.58
2022-10-04T00:54:07.857Z,61.67
2022-10-04T00:55:19.092Z,61.56
2022-10-04T00:56:30.936Z,61.49
2022-10-04T00:57:44.990Z,61.57
2022-10-04T00:59:09.928Z,61.52
2022-10-04T01:00:19.467Z,61.50
2022-10-04T01:01:26.262Z,61.61
2022-10-04T01:02:44.872Z,61.51
2022-10-04T01:03:47.937Z,61.26
2022-10-04T01:05:09.398Z,61.57
2022-10-04T01:06:13.617Z,61.18
2022-10-04T01:07:22.310Z,61.37
2022-10-04T01:08:40.785Z,61.43
2022-10-04T01:09:55.433Z,61.45
2022-10-04T01:10:57.574Z,61.30
2022-10-04T01:12:06.171Z,61.53
2022-10-04T01:13:17.697Z,61.41
2022-10-04T01:14:28.364Z,61.44
2022-10-04T01:15:53.653Z,61.16
2022-10-04T01:16:56.513Z,61.22
2022-10-04T01:18:27.593Z,61.31
2022-10-04T01:19:31.934Z,61.28
2022-10-04T01:20:54.731Z,61.25
2022-10-04T01:22:00.070Z,61.45
2022-10-04T01:23:03.920Z,61.19
2022-10-04T01:24:08.954Z,61.45
2022-10-04T01:25:31.156Z,61.30
2022-10-04T01:26:40.425Z,61.23
2022-10-04T01:27:45.745Z,61.16
2022-10-04T01:28:48.046Z,61.09
2022-10-04T01:29:53.413Z,61.28
2022-10-04T01:30:55.819Z,61.46
2022-10-04T01:32:00.727Z,61.23
2022-10-04T01:33:03.591Z,61.12
2022-10-04T01:34:07.078Z,61.40
2022-10-04T01:35:12.105Z,61.44
2022-10-04T01:36:14.403Z,61.26
2022-10-04T01:37:16.803Z,61.12
2022-10-04T01:38:19.162Z,61.37
2022-10-04T01:39:23.422Z,61.49
2022-10-04T01:40:33.277Z,61.45
2022-10-04T01:41:54.515Z,61.52
2022-10-04T01:43:06.486Z,61.28
2022-10-04T01:44:22.585Z,61.50
2022-10-04T01:45:35.152Z,61.40
2022-10-04T01:46:40.135Z,61.46
2022-10-04T01:47:52.915Z,61.18
2022-10-04T01:48:58.399Z,61.30
2022-10-04T01:50:14.962Z,61.31
2022-10-04T01:51:30.534Z,61.51
2022-10-04T01:52:38.052Z,61.38
2022-10-04T01:53:49.982Z,61.58
2022-10-04T01:55:02.779Z,61.39
2022-10-04T01:56:10.941Z,61.42
2022-10-04T01:57:23.950Z,61.30
2022-10-04T01:58:32.292Z,61.36
2022-10-04T01:59:54.255Z,61.38
2022-10-04T02:01:34.843Z,61.42
2022-10-04T02:02:46.142Z,61.47
2022-10-04T02:03:54.482Z,61.44
2022-10-04T02:04:59.606Z,61.52
2022-10-04T02:06:07.511Z,61.27
2022-10-04T02:07:15.457Z,61.62
2022-10-04T02:08:23.903Z,61.44
2022-10-04T02:09:34.804Z,61.43
2022-10-04T02:10:43.235Z,61.51
2022-10-04T02:11:52.737Z,61.57
2022-10-04T02:12:57.277Z,61.30
2022-10-04T02:14:03.176Z,61.29
2022-10-04T02:15:08.519Z,61.56
2022-10-04T02:16:12.322Z,61.46
2022-10-04T02:17:18.323Z,61.36
2022-10-04T02:18:22.917Z,61.43
2022-10-04T02:19:33.776Z,61.50
2022-10-04T02:20:40.175Z,61.50
2022-10-04T02:21:43.829Z,61.53
2022-10-04T02:22:51.505Z,61.43
2022-10-04T02:23:57.401Z,61.37
2022-10-04T02:25:00.235Z,61.26
2022-10-04T02:26:07.369Z,61.35
2022-10-04T02:27:09.780Z,61.58
2022-10-04T02:28:16.358Z,61.36
2022-10-04T02:29:20.591Z,61.53
2022-10-04T02:30:23.612Z,61.59
2022-10-04T02:31:46.684Z,61.70
2022-10-04T02:32:58.438Z,61.46
2022-10-04T02:34:00.786Z,61.46
2022-10-04T02:35:06.499Z,61.38
2022-10-04T02:36:10.637Z,61.26
2022-10-04T02:37:14.816Z,61.33
2022-10-04T02:38:24.644Z,61.54
2022-10-04T02:39:32.288Z,61.40
2022-10-04T02:40:46.829Z,61.70
2022-10-04T02:42:08.996Z,61.32
2022-10-04T02:43:19.452Z,61.56
2022-10-04T02:44:42.589Z,61.30
2022-10-04T02:46:04.508Z,61.53
2022-10-04T02:47:20.898Z,61.53
2022-10-04T02:48:31.917Z,61.56
2022-10-04T02:49:47.155Z,61.43
2022-10-04T02:50:53.551Z,61.54
2022-10-04T02:52:07.476Z,61.48
2022-10-04T02:53:22.492Z,61.65
2022-10-04T02:54:38.870Z,61.55
2022-10-04T02:55:41.843Z,61.49
2022-10-04T02:56:44.809Z,61.66
2022-10-04T02:57:47.660Z,61.59
2022-10-04T02:58:50.180Z,61.51
2022-10-04T03:00:10.109Z,61.60
2022-10-04T03:01:50.945Z,61.77
2022-10-04T03:03:20.342Z,61.51
2022-10-04T03:04:27.174Z,61.79
2022-10-04T03:05:29.493Z,61.46
2022-10-04T03:06:33.393Z,61.61
2022-10-04T03:07:37.248Z,61.49
2022-10-04T03:08:53.102Z,61.64
2022-10-04T03:09:55.373Z,61.68
2022-10-04T03:11:02.549Z,61.56
2022-10-04T03:12:05.845Z,61.77
2022-10-04T03:13:08.639Z,61.66
2022-10-04T03:14:20.447Z,61.73
2022-10-04T03:15:22.857Z,61.91
2022-10-04T03:16:26.323Z,61.81
2022-10-04T03:17:32.053Z,61.91
2022-10-04T03:18:36.290Z,61.85
2022-10-04T03:19:38.810Z,61.91
2022-10-04T03:20:41.532Z,61.98
2022-10-04T03:21:49.659Z,61.92
2022-10-04T03:22:55.739Z,61.73
2022-10-04T03:24:01.106Z,61.85
2022-10-04T03:25:03.593Z,61.91
2022-10-04T03:26:37.117Z,61.74
2022-10-04T03:27:39.818Z,61.95
2022-10-04T03:28:44.379Z,61.94
2022-10-04T03:29:47.328Z,62.01
2022-10-04T03:30:50.249Z,61.89
2022-10-04T03:31:58.400Z,61.99
2022-10-04T03:33:00.781Z,62.10
2022-10-04T03:34:03.205Z,62.05
2022-10-04T03:35:15.621Z,62.17
2022-10-04T03:36:19.213Z,62.16
2022-10-04T03:37:22.150Z,62.13
2022-10-04T03:38:26.534Z,61.89
2022-10-04T03:39:40.666Z,62.19
2022-10-04T03:40:51.697Z,62.02
2022-10-04T03:41:57.990Z,62.38
2022-10-04T03:43:04.390Z,62.20
2022-10-04T03:44:23.163Z,62.09
2022-10-04T03:45:28.539Z,62.36
2022-10-04T03:46:30.938Z,62.27
2022-10-04T03:47:37.200Z,62.31
2022-10-04T03:48:46.720Z,62.15
2022-10-04T03:49:50.955Z,62.44
2022-10-04T03:50:54.320Z,62.29
2022-10-04T03:51:59.037Z,62.17
2022-10-04T03:53:09.916Z,62.19
2022-10-04T03:54:18.576Z,62.27
2022-10-04T03:55:24.508Z,62.25
2022-10-04T03:56:29.963Z,62.51
2022-10-04T03:57:34.228Z,62.55
2022-10-04T03:58:39.968Z,62.30
2022-10-04T03:59:43.348Z,62.40
2022-10-04T04:00:54.107Z,62.46
2022-10-04T04:02:06.828Z,62.55
2022-10-04T04:03:17.554Z,62.57
2022-10-04T04:04:43.101Z,62.63
2022-10-04T04:05:51.178Z,62.76
2022-10-04T04:07:03.126Z,62.58
2022-10-04T04:08:15.609Z,62.64
2022-10-04T04:09:38.193Z,62.67
2022-10-04T04:10:46.500Z,62.76
2022-10-04T04:11:50.801Z,62.74
2022-10-04T04:12:55.316Z,62.66
2022-10-04T04:14:10.203Z,62.54
2022-10-04T04:15:13.983Z,62.48
2022-10-04T04:16:16.491Z,62.60
2022-10-04T04:17:30.206Z,62.76
2022-10-04T04:18:35.156Z,62.50
2022-10-04T04:19:37.343Z,62.60
2022-10-04T04:20:42.488Z,62.52
2022-10-04T04:21:45.904Z,62.76
2022-10-04T04:23:11.988Z,62.80
2022-10-04T04:24:32.290Z,62.79
2022-10-04T04:25:38.553Z,62.75
2022-10-04T04:26:48.356Z,62.85
2022-10-04T04:29:30.311Z,62.69
2022-10-04T04:30:37.104Z,62.83
2022-10-04T04:31:51.952Z,62.67
2022-10-04T04:32:57.838Z,62.79
2022-10-04T04:34:15.218Z,62.71
2022-10-04T04:35:36.350Z,62.83
2022-10-04T04:36:42.109Z,62.75
2022-10-04T04:37:44.343Z,62.86
2022-10-04T04:39:05.518Z,62.91
2022-10-04T04:40:26.004Z,62.54
2022-10-04T04:41:32.446Z,62.73
2022-10-04T04:42:35.119Z,62.89
2022-10-04T04:43:42.969Z,62.85
2022-10-04T04:44:52.061Z,62.91
2022-10-04T04:46:14.958Z,62.74
2022-10-04T04:47:30.085Z,62.85
2022-10-04T04:48:32.881Z,62.61
2022-10-04T04:49:39.902Z,62.65
2022-10-04T04:50:48.266Z,62.75
2022-10-04T04:51:53.602Z,62.58
2022-10-04T04:52:58.658Z,62.77
2022-10-04T04:54:03.901Z,62.85
2022-10-04T04:55:15.254Z,62.72
2022-10-04T04:56:27.272Z,62.73
2022-10-04T04:57:29.665Z,62.71
2022-10-04T04:58:46.751Z,62.89
2022-10-04T04:59:54.205Z,62.79
2022-10-04T05:01:01.661Z,62.72
2022-10-04T05:02:03.989Z,62.86
2022-10-04T05:03:17.573Z,62.72
2022-10-04T05:04:22.915Z,62.84
2022-10-04T05:05:27.256Z,62.93
2022-10-04T05:06:30.992Z,62.82
2022-10-04T05:07:33.188Z,62.90
2022-10-04T05:08:40.421Z,62.65
2022-10-04T05:09:44.161Z,62.85
2022-10-04T05:11:16.145Z,62.78
2022-10-04T05:12:23.775Z,62.65
2022-10-04T05:13:49.222Z,62.64
2022-10-04T05:14:54.490Z,62.54
2022-10-04T05:15:59.420Z,62.54
2022-10-04T05:17:01.792Z,62.53
2022-10-04T05:18:20.857Z,62.50
2022-10-04T05:19:37.020Z,62.45
2022-10-04T05:20:39.255Z,62.65
2022-10-04T05:21:46.722Z,62.58
2022-10-04T05:22:51.381Z,62.47
2022-10-04T05:23:56.199Z,62.46
2022-10-04T05:25:05.218Z,62.49
2022-10-04T05:26:12.877Z,62.31
2022-10-04T05:27:23.343Z,62.40
2022-10-04T05:28:26.208Z,62.68
2022-10-04T05:29:34.280Z,62.67
2022-10-04T05:30:50.116Z,62.69
2022-10-04T05:31:58.749Z,62.56
2022-10-04T05:33:20.272Z,62.44
2022-10-04T05:34:32.049Z,62.73
2022-10-04T05:35:59.499Z,62.65
2022-10-04T05:37:30.154Z,62.64
2022-10-04T05:39:00.090Z,62.49
2022-10-04T05:40:40.003Z,62.48
2022-10-04T05:42:12.999Z,62.41
2022-10-04T05:43:30.460Z,62.74
2022-10-04T05:44:37.639Z,62.70
2022-10-04T05:45:42.155Z,62.44
2022-10-04T05:46:44.622Z,62.82
2022-10-04T05:47:51.100Z,62.70
2022-10-04T05:48:56.189Z,62.69
2022-10-04T05:50:01.158Z,62.57
2022-10-04T05:51:15.049Z,62.85
2022-10-04T05:52:28.642Z,62.70
2022-10-04T05:53:33.596Z,62.76
2022-10-04T05:54:36.141Z,62.75
2022-10-04T05:55:55.350Z,62.90
2022-10-04T05:57:09.792Z,62.90
2022-10-04T05:58:48.239Z,62.67
2022-10-04T06:00:04.131Z,62.73
2022-10-04T06:01:51.635Z,62.72
2022-10-04T06:03:14.736Z,62.67
2022-10-04T06:04:44.375Z,62.80
2022-10-04T06:05:51.955Z,62.66
2022-10-04T06:07:00.251Z,62.82
2022-10-04T06:08:17.124Z,62.55
2022-10-04T06:09:37.815Z,62.47
2022-10-04T06:11:03.627Z,62.56
2022-10-04T06:12:26.941Z,62.71
2022-10-04T06:13:52.668Z,62.73
2022-10-04T06:15:08.450Z,62.49
2022-10-04T06:16:32.456Z,62.31
2022-10-04T06:17:34.647Z,62.36
2022-10-04T06:18:54.893Z,62.34
2022-10-04T06:20:09.273Z,62.46
2022-10-04T06:21:37.672Z,62.16
2022-10-04T06:22:44.944Z,62.23
2022-10-04T06:24:01.086Z,62.09
2022-10-04T06:25:06.593Z,62.37
2022-10-04T06:26:18.638Z,62.14
2022-10-04T06:27:23.689Z,62.24
2022-10-04T06:28:29.141Z,62.02
2022-10-04T06:29:38.668Z,62.22
2022-10-04T06:31:08.059Z,62.28
2022-10-04T06:32:19.836Z,62.10
2022-10-04T06:33:34.305Z,62.23
2022-10-04T06:34:59.198Z,62.33
2022-10-04T06:36:14.641Z,62.13
2022-10-04T06:37:32.577Z,62.32
2022-10-04T06:39:00.904Z,62.21
2022-10-04T06:40:43.703Z,62.21
2022-10-04T06:42:08.897Z,62.07
2022-10-04T06:43:29.300Z,62.04
2022-10-04T06:44:44.297Z,62.03
2022-10-04T06:46:07.489Z,62.20
2022-10-04T06:47:27.868Z,62.08
2022-10-04T06:48:51.822Z,62.19
2022-10-04T06:50:06.920Z,61.99
2022-10-04T06:51:35.637Z,61.90
2022-10-04T06:52:54.879Z,61.88
2022-10-04T06:54:34.593Z,61.88
2022-10-04T06:56:03.205Z,61.85
2022-10-04T06:57:26.665Z,62.10
2022-10-04T06:58:50.766Z,62.07
2022-10-04T07:00:02.169Z,61.97
2022-10-04T07:01:13.203Z,61.87
2022-10-04T07:02:22.752Z,61.89
2022-10-04T07:03:39.796Z,61.96
2022-10-04T07:05:14.520Z,61.79
2022-10-04T07:06:24.816Z,61.83
2022-10-04T07:07:36.351Z,61.85
2022-10-04T07:08:50.540Z,61.92
2022-10-04T07:10:04.152Z,61.93
2022-10-04T07:11:19.405Z,61.75
2022-10-04T07:12:21.784Z,61.76
2022-10-04T07:13:33.875Z,61.64
2022-10-04T07:14:51.213Z,61.52
2022-10-04T07:16:10.567Z,61.46
2022-10-04T07:17:20.077Z,61.63
2022-10-04T07:18:52.147Z,61.71
2022-10-04T07:19:55.921Z,61.59
2022-10-04T07:21:04.816Z,61.78
2022-10-04T07:22:06.954Z,61.74
2022-10-04T07:23:13.344Z,61.72
2022-10-04T07:24:25.177Z,61.87
2022-10-04T07:25:32.011Z,61.64
2022-10-04T07:26:48.952Z,61.80
2022-10-04T07:28:16.623Z,61.49
2022-10-04T07:29:36.706Z,61.55
2022-10-04T07:30:59.649Z,61.59
2022-10-04T07:32:05.968Z,61.17
2022-10-04T07:33:14.646Z,61.04
2022-10-04T07:34:30.708Z,61.32
2022-10-04T07:35:44.972Z,61.23
2022-10-04T07:36:59.969Z,61.25
2022-10-04T07:38:21.425Z,61.12
2022-10-04T07:39:43.847Z,60.93
2022-10-04T07:41:05.136Z,60.76
2022-10-04T07:42:44.302Z,60.86
2022-10-04T07:44:00.754Z,60.57
2022-10-04T07:45:32.818Z,60.65
2022-10-04T07:47:03.961Z,60.53
2022-10-04T07:48:23.289Z,60.15
2022-10-04T07:49:27.115Z,60.08
2022-10-04T07:50:35.270Z,60.22
2022-10-04T07:52:04.385Z,60.01
2022-10-04T07:53:18.405Z,59.73
2022-10-04T07:54:26.679Z,59.92
2022-10-04T07:55:32.322Z,59.53
2022-10-04T07:56:42.956Z,59.19
2022-10-04T07:58:26.023Z,59.11
2022-10-04T07:59:46.614Z,59.31
2022-10-04T08:01:01.268Z,59.06
2022-10-04T08:02:38.699Z,59.17
2022-10-04T08:03:50.107Z,58.95
2022-10-04T08:05:10.685Z,58.76
2022-10-04T08:06:16.679Z,58.51
2022-10-04T08:07:26.410Z,58.56
2022-10-04T08:08:58.281Z,58.42
2022-10-04T08:10:14.875Z,58.59
2022-10-04T08:11:46.823Z,58.37
2022-10-04T08:12:59.983Z,58.12
2022-10-04T08:14:38.394Z,58.21
2022-10-04T08:15:44.032Z,58.19
2022-10-04T08:16:54.620Z,58.21
2022-10-04T08:18:26.312Z,57.96
2022-10-04T08:19:49.794Z,57.84
2022-10-04T08:21:08.025Z,58.37
2022-10-04T08:22:22.609Z,58.26
2022-10-04T08:23:44.956Z,58.25
2022-10-04T08:25:23.020Z,58.34
2022-10-04T08:27:08.461Z,58.70
2022-10-04T08:28:48.855Z,58.33
2022-10-04T08:30:12.168Z,58.34
2022-10-04T08:31:27.983Z,58.09
2022-10-04T08:33:01.805Z,58.30
2022-10-04T08:34:25.857Z,58.19
2022-10-04T08:35:37.732Z,58.08
2022-10-04T08:36:54.517Z,58.03
2022-10-04T08:38:08.830Z,58.12
2022-10-04T08:39:21.507Z,58.21
2022-10-04T08:40:48.911Z,57.80
2022-10-04T08:42:02.223Z,57.81
2022-10-04T08:43:43.315Z,58.04
2022-10-04T08:45:23.756Z,58.09
2022-10-04T08:46:54.810Z,58.26
2022-10-04T08:48:24.620Z,57.73
2022-10-04T08:50:02.145Z,57.92
2022-10-04T08:51:39.187Z,57.89
2022-10-04T08:53:10.939Z,57.58
2022-10-04T08:54:19.242Z,57.47
2022-10-04T08:55:43.550Z,57.31
2022-10-04T08:57:06.303Z,56.96
2022-10-04T08:58:16.411Z,56.72
2022-10-04T08:59:58.027Z,56.83
2022-10-04T09:01:18.134Z,56.30
2022-10-04T09:02:29.347Z,56.32
2022-10-04T09:04:06.983Z,56.24
2022-10-04T09:05:27.827Z,56.67
2022-10-04T09:06:59.823Z,56.48
2022-10-04T09:08:39.690Z,56.50
2022-10-04T09:09:53.712Z,56.35
2022-10-04T09:11:17.905Z,56.43
2022-10-04T09:12:53.363Z,56.85
2022-10-04T09:14:24.119Z,56.86
2022-10-04T09:15:35.198Z,57.22
2022-10-04T09:16:49.380Z,57.31
2022-10-04T09:18:13.450Z,56.99
2022-10-04T09:19:23.414Z,57.20
2022-10-04T09:20:46.816Z,57.10
2022-10-04T09:22:01.408Z,57.09
2022-10-04T09:23:24.256Z,57.30
2022-10-04T09:24:48.095Z,56.86
2022-10-04T09:26:29.214Z,56.85
2022-10-04T09:27:59.269Z,56.94
2022-10-04T09:29:28.556Z,56.82
2022-10-04T09:30:48.186Z,56.77
2022-10-04T09:32:19.037Z,56.78
2022-10-04T09:33:49.288Z,56.69
2022-10-04T09:35:20.254Z,56.69
2022-10-04T09:36:58.370Z,56.13
2022-10-04T09:38:47.923Z,56.62
2022-10-04T09:40:11.866Z,56.42
2022-10-04T09:41:22.871Z,56.15
2022-10-04T09:42:43.749Z,55.97
2022-10-04T09:44:22.268Z,55.76
2022-10-04T09:45:43.081Z,54.84
2022-10-04T09:47:08.323Z,54.53
2022-10-04T09:48:33.007Z,54.70
2022-10-04T09:50:06.017Z,54.22
2022-10-04T09:51:23.388Z,53.52
2022-10-04T09:52:49.083Z,53.60
2022-10-04T09:53:53.040Z,53.16
2022-10-04T09:54:56.902Z,53.17
2022-10-04T09:56:15.990Z,53.24
2022-10-04T09:57:33.703Z,53.00
2022-10-04T09:59:18.603Z,53.15
2022-10-04T10:00:24.952Z,53.06
2022-10-04T10:02:06.201Z,52.90
2022-10-04T10:03:31.021Z,52.12
2022-10-04T10:05:02.328Z,51.79
2022-10-04T10:06:13.499Z,52.13
2022-10-04T10:07:31.173Z,51.63
2022-10-04T10:09:07.389Z,52.17
2022-10-04T10:10:58.411Z,52.03
2022-10-04T10:12:55.425Z,51.90
2022-10-04T10:14:42.341Z,52.16
2022-10-04T10:15:59.932Z,51.55
2022-10-04T10:17:23.605Z,51.81
2022-10-04T10:19:05.730Z,51.14
2022-10-04T10:20:28.410Z,50.79
2022-10-04T10:22:09.207Z,51.36
2022-10-04T10:23:44.121Z,51.41
2022-10-04T10:25:07.766Z,51.16
2022-10-04T10:26:28.294Z,50.89
2022-10-04T10:27:57.281Z,50.32
2022-10-04T10:29:14.504Z,50.69
2022-10-04T10:30:33.395Z,50.70
2022-10-04T10:32:00.850Z,50.26
2022-10-04T10:33:20.093Z,50.18
2022-10-04T10:34:41.204Z,50.29
2022-10-04T10:35:59.144Z,49.57
2022-10-04T10:37:17.099Z,49.62
2022-10-04T10:38:32.246Z,49.56
2022-10-04T10:39:38.099Z,49.65
2022-10-04T10:40:55.196Z,49.76
2022-10-04T10:42:31.202Z,50.12
2022-10-04T10:44:04.195Z,50.37
2022-10-04T10:45:15.180Z,49.74
2022-10-04T10:46:19.209Z,49.62
2022-10-04T10:47:26.277Z,49.31
2022-10-04T10:48:37.212Z,49.19
2022-10-04T10:50:01.505Z,48.93
2022-10-04T10:51:34.553Z,49.40
2022-10-04T10:53:14.367Z,49.10
2022-10-04T10:55:01.955Z,48.86
2022-10-04T10:56:41.720Z,49.16
2022-10-04T10:57:56.089Z,48.90
2022-10-04T10:59:22.836Z,49.13
2022-10-04T11:00:42.560Z,48.42
2022-10-04T11:02:06.828Z,49.09
2022-10-04T11:03:43.586Z,48.88
2022-10-04T11:05:23.301Z,48.92
2022-10-04T11:06:47.527Z,49.24
2022-10-04T11:08:09.346Z,49.28
2022-10-04T11:09:34.265Z,49.86
2022-10-04T11:11:04.455Z,49.60
2022-10-04T11:12:39.784Z,49.63
2022-10-04T11:14:00.551Z,49.85
2022-10-04T11:15:38.523Z,49.96
2022-10-04T11:17:09.714Z,50.22
2022-10-04T11:18:27.260Z,50.27
2022-10-04T11:20:11.684Z,50.16
2022-10-04T11:21:41.673Z,49.96
2022-10-04T11:23:05.384Z,49.97
2022-10-04T11:24:19.765Z,49.28
2022-10-04T11:25:49.025Z,49.71
2022-10-04T11:27:13.861Z,49.47
2022-10-04T11:28:37.387Z,49.14
2022-10-04T11:29:55.409Z,48.72
2022-10-04T11:31:19.321Z,48.26
2022-10-04T11:32:52.712Z,49.29
2022-10-04T11:34:16.413Z,48.99
2022-10-04T11:35:24.986Z,49.11
2022-10-04T11:36:54.113Z,49.35
2022-10-04T11:38:32.352Z,49.21
2022-10-04T11:39:58.884Z,48.98
2022-10-04T11:41:07.851Z,48.77
2022-10-04T11:42:30.887Z,49.09
2022-10-04T11:43:52.550Z,49.09
2022-10-04T11:45:19.948Z,48.41
2022-10-04T11:46:41.571Z,48.70
2022-10-04T11:48:02.154Z,48.04
2022-10-04T11:49:38.620Z,48.08
2022-10-04T11:50:43.849Z,47.80
2022-10-04T11:52:11.399Z,47.42
2022-10-04T11:53:56.384Z,47.69
2022-10-04T11:55:26.562Z,47.52
2022-10-04T11:56:41.889Z,46.83
2022-10-04T11:58:03.166Z,47.28
2022-10-04T11:59:18.467Z,46.86
2022-10-04T12:00:23.322Z,46.29
2022-10-04T12:01:30.503Z,46.56
2022-10-04T12:02:51.710Z,46.09
2022-10-04T12:04:08.990Z,46.69
2022-10-04T12:05:25.670Z,46.83
2022-10-04T12:06:47.117Z,46.80
2022-10-04T12:08:43.716Z,47.08
2022-10-04T12:10:06.383Z,47.15
2022-10-04T12:12:09.340Z,47.77
2022-10-04T12:13:32.413Z,47.72
2022-10-04T12:15:04.445Z,47.78
2022-10-04T12:16:13.200Z,47.42
2022-10-04T12:17:50.028Z,47.39
2022-10-04T12:19:15.551Z,47.60
2022-10-04T12:20:40.499Z,47.42
2022-10-04T12:22:07.658Z,47.56
2022-10-04T12:23:29.741Z,47.30
2022-10-04T12:25:09.705Z,47.12
2022-10-04T12:26:33.063Z,46.78
2022-10-04T12:27:45.817Z,46.41
2022-10-04T12:29:12.974Z,46.78
2022-10-04T12:30:43.514Z,46.68
2022-10-04T12:31:55.332Z,46.36
2022-10-04T12:33:14.828Z,46.79
2022-10-04T12:34:27.986Z,46.95
2022-10-04T12:35:34.363Z,46.65
2022-10-04T12:37:11.536Z,47.07
2022-10-04T12:38:39.034Z,46.59
2022-10-04T12:40:02.141Z,46.86
2022-10-04T12:41:26.333Z,46.81
2022-10-04T12:43:06.247Z,46.81
2022-10-04T12:44:32.269Z,46.53
2022-10-04T12:45:39.233Z,46.58
2022-10-04T12:47:13.745Z,46.72
2022-10-04T12:48:50.680Z,46.59
2022-10-04T12:50:31.605Z,46.49
2022-10-04T12:51:48.661Z,46.16
2022-10-04T12:53:21.778Z,46.40
2022-10-04T12:54:44.636Z,46.12
2022-10-04T12:55:49.597Z,45.75
2022-10-04T12:57:20.276Z,45.69
2022-10-04T12:58:45.406Z,46.39
2022-10-04T13:00:14.894Z,46.51
2022-10-04T13:01:34.402Z,46.61
2022-10-04T13:02:36.716Z,46.63
2022-10-04T13:03:54.452Z,45.87
2022-10-04T13:05:07.886Z,45.65
2022-10-04T13:06:16.086Z,45.60
2022-10-04T13:07:43.528Z,46.29
2022-10-04T13:09:16.949Z,46.17
2022-10-04T13:10:24.510Z,46.12
2022-10-04T13:11:41.935Z,46.02
2022-10-04T13:13:05.677Z,45.51
2022-10-04T13:14:32.262Z,46.08
2022-10-04T13:17:35.803Z,45.81
2022-10-04T13:19:17.389Z,46.08
2022-10-04T13:20:36.417Z,45.82
2022-10-04T13:21:41.230Z,45.29
2022-10-04T13:22:57.614Z,45.68
2022-10-04T13:24:11.611Z,45.52
2022-10-04T13:25:24.106Z,45.51
2022-10-04T13:27:01.540Z,45.56
2022-10-04T13:28:21.542Z,45.31
2022-10-04T13:30:06.681Z,45.85
2022-10-04T13:31:24.079Z,45.80
2022-10-04T13:32:31.266Z,45.65
2022-10-04T13:33:58.275Z,45.71
2022-10-04T13:35:14.611Z,45.54
2022-10-04T13:36:26.781Z,45.50
2022-10-04T13:37:55.040Z,45.91
2022-10-04T13:39:29.653Z,46.07
2022-10-04T13:41:14.469Z,45.58
2022-10-04T13:42:19.626Z,45.90
2022-10-04T13:43:37.002Z,45.46
2022-10-04T13:45:11.467Z,45.49
2022-10-04T13:46:28.848Z,45.90
2022-10-04T13:47:51.535Z,46.05
2022-10-04T13:49:12.823Z,45.96
2022-10-04T13:50:14.982Z,46.04
2022-10-04T13:51:28.570Z,45.91
2022-10-04T13:53:10.479Z,45.85
2022-10-04T13:54:41.169Z,45.46
2022-10-04T13:56:28.258Z,45.88
2022-10-04T13:57:50.133Z,45.80
2022-10-04T13:59:07.431Z,45.98
2022-10-04T14:00:19.678Z,45.74
2022-10-04T14:01:48.708Z,45.75
2022-10-04T14:02:53.933Z,45.49
2022-10-04T14:04:19.964Z,45.09
2022-10-04T14:05:40.241Z,45.35
2022-10-04T14:07:21.297Z,45.67
2022-10-04T14:08:36.887Z,45.70
2022-10-04T14:10:13.398Z,45.64
2022-10-04T14:11:27.819Z,45.37
2022-10-04T14:12:48.835Z,45.03
2022-10-04T14:14:10.340Z,45.43
2022-10-04T14:15:56.506Z,45.11
2022-10-04T14:17:25.258Z,45.15
2022-10-04T14:18:27.629Z,45.18
2022-10-04T14:19:41.848Z,45.31
2022-10-04T14:21:05.915Z,45.32
2022-10-04T14:22:50.494Z,45.18
2022-10-04T14:24:28.554Z,45.41
2022-10-04T14:25:49.173Z,44.96
2022-10-04T14:27:22.627Z,44.78
2022-10-04T14:28:43.817Z,44.81
2022-10-04T14:29:59.023Z,44.95
2022-10-04T14:31:08.177Z,44.66
2022-10-04T14:32:29.153Z,44.92
2022-10-04T14:33:59.155Z,45.06
2022-10-04T14:35:05.190Z,45.17
2022-10-04T14:36:19.904Z,45.11
2022-10-04T14:38:12.148Z,45.33
2022-10-04T14:39:56.414Z,44.97
2022-10-04T14:41:35.354Z,45.10
2022-10-04T14:42:47.249Z,45.12
2022-10-04T14:44:13.892Z,45.04
2022-10-04T14:45:37.882Z,44.81
2022-10-04T14:47:00.779Z,44.68
2022-10-04T14:48:21.152Z,44.61
2022-10-04T14:49:38.588Z,44.33
2022-10-04T14:51:04.685Z,44.30
2022-10-04T14:52:18.307Z,44.65
2022-10-04T14:53:31.277Z,44.27
2022-10-04T14:55:12.198Z,44.75
2022-10-04T14:56:32.979Z,44.53
2022-10-04T14:58:15.754Z,44.94
2022-10-04T14:59:31.301Z,44.90
2022-10-04T15:00:36.527Z,44.62
2022-10-04T15:02:01.773Z,44.79
2022-10-04T15:03:05.610Z,44.56
2022-10-04T15:04:40.327Z,44.72
2022-10-04T15:05:57.923Z,44.67
2022-10-04T15:07:30.660Z,44.82
2022-10-04T15:08:51.684Z,44.65
2022-10-04T15:10:13.674Z,44.57
2022-10-04T15:11:44.491Z,44.47
2022-10-04T15:13:11.012Z,44.79
2022-10-04T15:14:35.766Z,44.60
2022-10-04T15:15:46.852Z,44.58
2022-10-04T15:16:55.613Z,44.69
2022-10-04T15:18:05.256Z,45.01
2022-10-04T15:19:31.567Z,44.97
2022-10-04T15:20:50.647Z,45.01
2022-10-04T15:21:55.412Z,45.19
2022-10-04T15:23:09.144Z,45.11
2022-10-04T15:24:17.738Z,44.95
2022-10-04T15:25:46.151Z,44.93
2022-10-04T15:27:24.068Z,45.21
2022-10-04T15:28:41.214Z,45.17
2022-10-04T15:30:15.031Z,45.26
2022-10-04T15:32:05.424Z,45.24
2022-10-04T15:33:36.240Z,45.47
2022-10-04T15:34:50.611Z,45.26
2022-10-04T15:36:01.630Z,45.41
2022-10-04T15:37:13.536Z,45.07
2022-10-04T15:38:27.902Z,45.04
2022-10-04T15:39:42.233Z,45.18
2022-10-04T15:41:13.491Z,45.55
2022-10-04T15:42:22.278Z,45.39
2022-10-04T15:43:37.687Z,45.52
2022-10-04T15:45:18.031Z,45.25
2022-10-04T15:46:35.353Z,45.37
2022-10-04T15:47:56.684Z,45.53
2022-10-04T15:49:14.685Z,45.05
2022-10-04T15:50:32.184Z,45.22
2022-10-04T15:52:12.044Z,45.36
2022-10-04T15:53:31.124Z,45.40
2022-10-04T15:54:47.374Z,45.68
2022-10-04T15:56:12.281Z,45.58
2022-10-04T15:57:23.528Z,45.40
2022-10-04T15:58:37.517Z,45.43
2022-10-04T15:59:53.687Z,45.51
2022-10-04T16:01:04.476Z,45.87
2022-10-04T16:02:47.254Z,45.71
2022-10-04T16:04:31.160Z,45.80
2022-10-04T16:05:58.649Z,45.93
2022-10-04T16:07:06.765Z,46.00
2022-10-04T16:08:09.255Z,45.89
2022-10-04T16:09:17.353Z,46.05
2022-10-04T16:10:52.341Z,46.01
2022-10-04T16:12:03.355Z,46.16
2022-10-04T16:13:17.444Z,46.41
2022-10-04T16:15:12.921Z,46.66
2022-10-04T16:16:15.176Z,46.79
2022-10-04T16:17:44.220Z,46.84
2022-10-04T16:19:05.825Z,46.89
2022-10-04T16:20:35.564Z,47.38
2022-10-04T16:22:07.247Z,47.23
2022-10-04T16:23:32.335Z,47.56
2022-10-04T16:24:54.422Z,47.35
2022-10-04T16:26:10.525Z,47.55
2022-10-04T16:27:23.027Z,47.72
2022-10-04T16:28:48.541Z,47.83
2022-10-04T16:30:25.116Z,47.71
2022-10-04T16:31:46.566Z,47.92
2022-10-04T16:32:58.010Z,48.11
2022-10-04T16:34:18.799Z,48.33
2022-10-04T16:35:43.976Z,48.27
2022-10-04T16:36:55.348Z,48.42
2022-10-04T16:38:06.797Z,48.62
2022-10-04T16:39:29.498Z,48.42
2022-10-04T16:40:47.165Z,48.45
2022-10-04T16:42:01.425Z,48.61
2022-10-04T16:43:21.112Z,48.99
2022-10-04T16:44:55.540Z,49.03
2022-10-04T16:46:17.454Z,49.06
2022-10-04T16:47:29.525Z,49.41